createdAt,value
2022-09-27T00:02:08.143Z,20.00
2022-09-27T00:04:35.640Z,18.53
2022-09-27T00:07:03.051Z,18.70
2022-09-27T00:09:30.473Z,17.87
2022-09-27T00:11:57.845Z,16.67
2022-09-27T00:14:25.346Z,16.13
2022-09-27T00:16:54.210Z,16.47
2022-09-27T00:19:23.720Z,16.77
2022-09-27T00:21:51.425Z,20.20
2022-09-27T00:24:20.945Z,18.47
2022-09-27T00:26:48.994Z,17.93
2022-09-27T00:29:18.009Z,18.87
2022-09-27T00:31:45.725Z,17.87
2022-09-27T00:34:20.290Z,18.33
2022-09-27T00:36:48.547Z,19.03
2022-09-27T00:39:16.311Z,18.47
2022-09-27T00:41:44.485Z,17.33
2022-09-27T00:44:49.561Z,21.77
2022-09-27T00:47:22.061Z,16.67
2022-09-27T00:49:54.656Z,16.83
2022-09-27T00:52:24.589Z,19.60
2022-09-27T00:54:55.220Z,16.93
2022-09-27T00:57:23.536Z,18.07
2022-09-27T00:59:53.530Z,16.97
2022-09-27T01:02:22.321Z,15.00
2022-09-27T01:04:52.045Z,16.40
2022-09-27T01:07:19.893Z,20.03
2022-09-27T01:09:47.514Z,15.33
2022-09-27T01:12:23.877Z,15.00
2022-09-27T01:15:03.587Z,17.80
2022-09-27T01:17:41.068Z,13.50
2022-09-27T01:20:21.313Z,14.13
2022-09-27T01:22:59.777Z,13.67
2022-09-27T01:25:44.478Z,13.50
2022-09-27T01:28:20.941Z,13.27
2022-09-27T01:30:51.813Z,12.93
2022-09-27T01:33:26.841Z,13.27
2022-09-27T01:36:05.806Z,13.87
2022-09-27T01:38:42.505Z,13.20
2022-09-27T01:41:17.153Z,13.80
2022-09-27T01:44:15.027Z,13.37
2022-09-27T01:46:51.677Z,13.70
2022-09-27T01:49:30.293Z,14.20
2022-09-27T01:52:00.645Z,14.00
2022-09-27T01:54:38.605Z,14.23
2022-09-27T01:57:23.472Z,13.57
2022-09-27T01:59:54.460Z,15.50
2022-09-27T02:02:45.849Z,14.03
2022-09-27T02:05:33.476Z,13.53
2022-09-27T02:08:13.818Z,14.20
2022-09-27T02:10:46.143Z,17.97
2022-09-27T02:13:21.793Z,13.83
2022-09-27T02:15:57.760Z,14.63
2022-09-27T02:18:47.751Z,16.83
2022-09-27T02:21:16.337Z,16.73
2022-09-27T02:23:47.315Z,18.23
2022-09-27T02:26:17.445Z,15.37
2022-09-27T02:28:49.922Z,12.90
2022-09-27T02:31:25.273Z,11.50
2022-09-27T02:34:01.978Z,11.80
2022-09-27T02:36:30.078Z,12.23
2022-09-27T02:38:57.746Z,10.47
2022-09-27T02:41:25.115Z,9.67
2022-09-27T02:43:55.912Z,11.43
2022-09-27T02:46:43.011Z,10.40
2022-09-27T02:49:20.404Z,10.23
2022-09-27T02:52:09.302Z,14.50
2022-09-27T02:54:42.251Z,9.90
2022-09-27T02:57:36.398Z,9.10
2022-09-27T03:00:18.353Z,10.30
2022-09-27T03:03:00.735Z,10.87
2022-09-27T03:05:42.758Z,12.87
2022-09-27T03:08:10.625Z,9.90
2022-09-27T03:10:37.975Z,10.73
2022-09-27T03:13:05.822Z,10.60
2022-09-27T03:15:33.441Z,10.03
2022-09-27T03:18:00.994Z,10.57
2022-09-27T03:21:04.770Z,11.20
2022-09-27T03:23:32.537Z,11.40
2022-09-27T03:25:59.977Z,10.87
2022-09-27T03:28:29.589Z,11.37
2022-09-27T03:30:57.037Z,13.90
2022-09-27T03:33:48.045Z,12.73
2022-09-27T03:36:17.069Z,15.93
2022-09-27T03:38:44.406Z,14.43
2022-09-27T03:41:16.691Z,13.17
2022-09-27T03:43:44.184Z,12.93
2022-09-27T03:46:12.037Z,12.60
2022-09-27T03:48:39.572Z,13.23
2022-09-27T03:51:07.242Z,12.83
2022-09-27T03:53:36.718Z,17.33
2022-09-27T03:56:04.665Z,11.20
2022-09-27T03:58:32.366Z,11.07
2022-09-27T04:01:00.094Z,12.37
2022-09-27T04:03:28.194Z,13.60
2022-09-27T04:06:27.016Z,11.53
2022-09-27T04:08:56.152Z,16.10
2022-09-27T04:11:30.824Z,19.23
2022-09-27T04:13:59.021Z,12.37
2022-09-27T04:16:27.413Z,13.00
2022-09-27T04:19:13.694Z,13.43
2022-09-27T04:21:46.985Z,12.67
2022-09-27T04:24:16.260Z,15.53
2022-09-27T04:26:54.956Z,12.17
2022-09-27T04:29:25.998Z,11.30
2022-09-27T04:31:55.320Z,12.07
2022-09-27T04:35:03.320Z,11.27
2022-09-27T04:37:30.841Z,11.60
2022-09-27T04:40:04.525Z,11.87
2022-09-27T04:42:33.944Z,11.03
2022-09-27T04:45:01.976Z,11.83
2022-09-27T04:47:29.345Z,11.80
2022-09-27T04:49:57.593Z,11.77
2022-09-27T04:52:25.361Z,16.37
2022-09-27T04:54:52.784Z,13.00
2022-09-27T04:57:22.145Z,14.10
2022-09-27T04:59:51.521Z,11.67
2022-09-27T05:02:19.171Z,11.90
2022-09-27T05:05:10.953Z,12.10
2022-09-27T05:07:41.775Z,11.70
2022-09-27T05:10:14.566Z,11.70
2022-09-27T05:12:43.469Z,11.23
2022-09-27T05:15:14.769Z,11.20
2022-09-27T05:18:00.880Z,18.13
2022-09-27T05:20:47.125Z,12.97
2022-09-27T05:23:21.221Z,10.73
2022-09-27T05:25:48.957Z,11.63
2022-09-27T05:28:17.649Z,10.80
2022-09-27T05:30:45.644Z,11.00
2022-09-27T05:33:18.951Z,10.83
2022-09-27T05:35:53.493Z,13.23
2022-09-27T05:38:23.717Z,10.70
2022-09-27T05:40:53.508Z,10.70
2022-09-27T05:43:22.225Z,11.30
2022-09-27T05:45:52.729Z,13.80
2022-09-27T05:48:21.999Z,12.23
2022-09-27T05:51:03.025Z,11.93
2022-09-27T05:53:32.439Z,12.40
2022-09-27T05:56:02.736Z,13.27
2022-09-27T05:58:39.651Z,13.00
2022-09-27T06:01:14.381Z,13.03
2022-09-27T06:04:02.251Z,12.73
2022-09-27T06:06:53.985Z,13.00
2022-09-27T06:09:21.464Z,13.17
2022-09-27T06:11:49.429Z,13.23
2022-09-27T06:14:19.440Z,12.00
2022-09-27T06:17:07.170Z,12.93
2022-09-27T06:19:36.962Z,12.73
2022-09-27T06:22:04.759Z,13.17
2022-09-27T06:24:41.634Z,12.83
2022-09-27T06:27:16.072Z,12.27
2022-09-27T06:29:52.024Z,12.80
2022-09-27T06:32:33.023Z,13.07
2022-09-27T06:35:15.911Z,13.43
2022-09-27T06:37:43.277Z,13.60
2022-09-27T06:40:11.122Z,13.70
2022-09-27T06:42:59.967Z,12.97
2022-09-27T06:45:48.978Z,12.90
2022-09-27T06:48:32.186Z,13.20
2022-09-27T06:51:11.344Z,12.70
2022-09-27T06:53:38.828Z,13.10
2022-09-27T06:56:06.585Z,13.23
2022-09-27T06:59:02.619Z,16.80
2022-09-27T07:01:57.825Z,12.40
2022-09-27T07:04:43.769Z,12.33
2022-09-27T07:07:39.738Z,12.97
2022-09-27T07:10:09.974Z,13.33
2022-09-27T07:12:38.024Z,12.50
2022-09-27T07:15:06.764Z,14.40
2022-09-27T07:17:36.148Z,13.90
2022-09-27T07:20:03.757Z,13.43
2022-09-27T07:22:31.702Z,13.70
2022-09-27T07:25:02.831Z,13.57
2022-09-27T07:27:32.989Z,13.73
2022-09-27T07:30:00.913Z,13.63
2022-09-27T07:32:28.999Z,14.80
2022-09-27T07:34:57.709Z,15.13
2022-09-27T07:37:26.132Z,15.53
2022-09-27T07:39:54.074Z,15.63
2022-09-27T07:42:21.535Z,16.13
2022-09-27T07:44:52.107Z,16.63
2022-09-27T07:47:29.267Z,17.63
2022-09-27T07:50:10.705Z,16.40
2022-09-27T07:52:57.309Z,18.20
2022-09-27T07:55:33.813Z,17.47
2022-09-27T07:58:18.003Z,17.53
2022-09-27T08:00:45.598Z,17.57
2022-09-27T08:03:15.943Z,17.57
2022-09-27T08:05:45.445Z,17.57
2022-09-27T08:08:12.832Z,17.63
2022-09-27T08:10:44.034Z,17.03
2022-09-27T08:13:12.827Z,18.40
2022-09-27T08:15:41.098Z,17.33
2022-09-27T08:18:10.297Z,17.10
2022-09-27T08:20:58.616Z,16.97
2022-09-27T08:23:29.445Z,17.07
2022-09-27T08:26:15.233Z,16.93
2022-09-27T08:29:00.869Z,17.23
2022-09-27T08:31:31.261Z,18.50
2022-09-27T08:33:58.881Z,17.13
2022-09-27T08:36:28.687Z,17.47
2022-09-27T08:38:59.005Z,17.57
2022-09-27T08:41:36.189Z,16.83
2022-09-27T08:44:10.297Z,17.20
2022-09-27T08:46:53.811Z,16.50
2022-09-27T08:49:26.307Z,17.23
2022-09-27T08:51:55.830Z,18.40
2022-09-27T08:54:25.719Z,18.20
2022-09-27T08:56:54.021Z,17.23
2022-09-27T08:59:25.221Z,17.33
2022-09-27T09:01:53.861Z,17.43
2022-09-27T09:04:34.455Z,17.77
2022-09-27T09:07:10.465Z,17.60
2022-09-27T09:09:45.749Z,19.07
2022-09-27T09:12:49.874Z,18.70
2022-09-27T09:15:26.866Z,18.77
2022-09-27T09:18:11.934Z,19.17
2022-09-27T09:20:58.308Z,19.73
2022-09-27T09:23:43.066Z,19.73
2022-09-27T09:26:14.850Z,18.90
2022-09-27T09:28:52.598Z,19.37
2022-09-27T09:31:26.091Z,19.40
2022-09-27T09:33:56.222Z,19.53
2022-09-27T09:36:28.773Z,19.60
2022-09-27T09:39:00.653Z,19.73
2022-09-27T09:41:30.087Z,19.10
2022-09-27T09:43:59.509Z,20.20
2022-09-27T09:46:31.269Z,18.30
2022-09-27T09:49:07.350Z,18.07
2022-09-27T09:51:39.385Z,17.60
2022-09-27T09:54:16.216Z,17.43
2022-09-27T09:56:47.530Z,17.00
2022-09-27T09:59:17.250Z,17.10
2022-09-27T10:01:47.909Z,17.60
2022-09-27T10:04:19.863Z,17.60
2022-09-27T10:06:47.567Z,17.40
2022-09-27T10:09:17.469Z,17.80
2022-09-27T10:12:04.874Z,17.30
2022-09-27T10:14:33.465Z,17.57
2022-09-27T10:17:10.035Z,18.47
2022-09-27T10:19:39.402Z,18.43
2022-09-27T10:22:14.693Z,18.00
2022-09-27T10:24:56.502Z,18.17
2022-09-27T10:27:48.021Z,17.70
2022-09-27T10:30:29.277Z,17.60
2022-09-27T10:32:59.674Z,19.10
2022-09-27T10:35:41.697Z,19.20
2022-09-27T10:38:26.409Z,19.37
2022-09-27T10:41:23.173Z,28.13
2022-09-27T10:43:51.501Z,22.57
2022-09-27T10:46:32.173Z,20.30
2022-09-27T10:49:20.059Z,18.43
2022-09-27T10:51:51.789Z,17.20
2022-09-27T10:54:24.955Z,16.20
2022-09-27T10:56:58.730Z,16.00
2022-09-27T10:59:26.806Z,15.33
2022-09-27T11:01:54.279Z,15.10
2022-09-27T11:04:32.232Z,15.27
2022-09-27T11:07:14.955Z,15.00
2022-09-27T11:09:48.422Z,15.30
2022-09-27T11:12:20.661Z,14.97
2022-09-27T11:14:55.201Z,14.63
2022-09-27T11:17:27.453Z,13.93
2022-09-27T11:20:14.860Z,13.50
2022-09-27T11:23:00.516Z,13.63
2022-09-27T11:25:38.352Z,13.20
2022-09-27T11:28:14.403Z,12.70
2022-09-27T11:30:48.512Z,12.23
2022-09-27T11:33:45.966Z,14.43
2022-09-27T11:36:17.981Z,15.67
2022-09-27T11:39:01.754Z,16.13
2022-09-27T11:41:41.056Z,15.60
2022-09-27T11:44:40.706Z,15.07
2022-09-27T11:47:17.229Z,16.57
2022-09-27T11:50:30.528Z,16.60
2022-09-27T11:53:08.937Z,16.90
2022-09-27T11:55:44.261Z,18.60
2022-09-27T11:58:18.766Z,17.57
2022-09-27T12:01:01.622Z,18.13
2022-09-27T12:03:53.253Z,17.40
2022-09-27T12:06:26.508Z,18.30
2022-09-27T12:09:03.458Z,18.77
2022-09-27T12:11:37.422Z,19.47
2022-09-27T12:14:07.964Z,18.93
2022-09-27T12:16:38.001Z,19.03
2022-09-27T12:19:10.291Z,19.10
2022-09-27T12:21:52.763Z,18.27
2022-09-27T12:24:22.386Z,18.27
2022-09-27T12:27:17.505Z,20.77
2022-09-27T12:29:47.214Z,21.83
2022-09-27T12:32:18.788Z,21.03
2022-09-27T12:34:50.021Z,20.47
2022-09-27T12:37:20.717Z,19.83
2022-09-27T12:39:51.765Z,18.37
2022-09-27T12:42:33.573Z,19.27
2022-09-27T12:45:11.977Z,19.47
2022-09-27T12:47:57.479Z,19.97
2022-09-27T12:50:30.943Z,19.73
2022-09-27T12:53:05.195Z,18.70
2022-09-27T12:55:57.188Z,18.57
2022-09-27T12:58:38.450Z,19.20
2022-09-27T13:01:14.011Z,19.37
2022-09-27T13:03:56.353Z,19.20
2022-09-27T13:06:33.617Z,20.90
2022-09-27T13:09:34.854Z,19.93
2022-09-27T13:12:05.404Z,17.73
2022-09-27T13:14:36.969Z,17.60
2022-09-27T13:17:04.379Z,17.83
2022-09-27T13:19:42.674Z,17.13
2022-09-27T13:22:38.397Z,17.87
2022-09-27T13:25:52.910Z,18.50
2022-09-27T13:28:36.516Z,18.50
2022-09-27T13:31:15.198Z,19.00
2022-09-27T13:33:47.113Z,18.80
2022-09-27T13:36:32.806Z,18.40
2022-09-27T13:39:22.635Z,19.30
2022-09-27T13:42:32.294Z,19.47
2022-09-27T13:45:20.007Z,19.43
2022-09-27T13:47:48.873Z,19.83
2022-09-27T13:50:26.476Z,19.80
2022-09-27T13:53:08.018Z,20.20
2022-09-27T13:55:42.799Z,19.20
2022-09-27T13:58:30.183Z,18.30
2022-09-27T14:01:00.248Z,19.33
2022-09-27T14:03:30.150Z,19.17
2022-09-27T14:06:05.424Z,18.40
2022-09-27T14:08:41.106Z,19.07
2022-09-27T14:11:13.664Z,18.37
2022-09-27T14:13:41.881Z,20.00
2022-09-27T14:16:15.510Z,18.80
2022-09-27T14:18:46.049Z,18.50
2022-09-27T14:21:19.793Z,19.10
2022-09-27T14:24:21.642Z,18.50
2022-09-27T14:26:49.220Z,17.70
2022-09-27T14:29:17.884Z,19.03
2022-09-27T14:31:45.423Z,19.50
2022-09-27T14:34:19.890Z,19.43
2022-09-27T14:37:07.147Z,19.00
2022-09-27T14:39:46.457Z,18.73
2022-09-27T14:42:32.809Z,18.80
2022-09-27T14:45:02.756Z,19.23
2022-09-27T14:47:30.202Z,19.53
2022-09-27T14:49:59.909Z,19.40
2022-09-27T14:52:31.219Z,18.30
2022-09-27T14:55:02.691Z,18.90
2022-09-27T14:57:32.744Z,19.00
2022-09-27T15:00:03.794Z,19.40
2022-09-27T15:02:34.197Z,18.43
2022-09-27T15:05:01.568Z,19.20
2022-09-27T15:07:29.030Z,19.27
2022-09-27T15:09:56.997Z,18.70
2022-09-27T15:12:27.137Z,18.77
2022-09-27T15:14:56.445Z,19.10
2022-09-27T15:17:25.117Z,18.17
2022-09-27T15:20:00.497Z,17.80
2022-09-27T15:22:35.158Z,18.83
2022-09-27T15:25:17.218Z,20.57
2022-09-27T15:27:52.840Z,18.50
2022-09-27T15:30:29.514Z,16.50
2022-09-27T15:32:57.490Z,16.20
2022-09-27T15:35:28.053Z,14.87
2022-09-27T15:38:13.474Z,14.47
2022-09-27T15:40:59.488Z,14.23
2022-09-27T15:43:30.944Z,14.10
2022-09-27T15:46:01.851Z,14.47
2022-09-27T15:48:29.875Z,14.57
2022-09-27T15:50:57.277Z,14.63
2022-09-27T15:53:42.382Z,14.00
2022-09-27T15:56:13.854Z,13.40
2022-09-27T15:58:43.302Z,13.63
2022-09-27T16:01:18.868Z,13.60
2022-09-27T16:03:46.464Z,14.30
2022-09-27T16:06:14.573Z,15.03
2022-09-27T16:08:42.097Z,14.70
2022-09-27T16:11:12.189Z,15.47
2022-09-27T16:13:39.513Z,16.93
2022-09-27T16:16:13.636Z,15.20
2022-09-27T16:18:40.963Z,14.97
2022-09-27T16:21:09.121Z,15.43
2022-09-27T16:23:36.558Z,15.97
2022-09-27T16:26:05.158Z,15.93
2022-09-27T16:28:32.813Z,16.00
2022-09-27T16:31:05.025Z,15.70
2022-09-27T16:33:34.453Z,15.80
2022-09-27T16:36:06.829Z,15.17
2022-09-27T16:38:34.184Z,15.70
2022-09-27T16:41:02.829Z,15.37
2022-09-27T16:43:31.129Z,14.53
2022-09-27T16:46:05.726Z,14.87
2022-09-27T16:48:34.389Z,15.10
2022-09-27T16:51:23.010Z,14.53
2022-09-27T16:53:50.407Z,14.43
2022-09-27T16:56:19.130Z,14.47
2022-09-27T16:58:46.754Z,14.33
2022-09-27T17:01:16.821Z,14.53
2022-09-27T17:03:49.625Z,14.97
2022-09-27T17:06:17.196Z,15.13
2022-09-27T17:08:44.866Z,14.47
2022-09-27T17:11:14.547Z,14.73
2022-09-27T17:13:42.344Z,15.33
2022-09-27T17:16:10.849Z,14.50
2022-09-27T17:18:38.703Z,14.60
2022-09-27T17:21:08.973Z,14.63
2022-09-27T17:23:36.868Z,14.40
2022-09-27T17:26:06.169Z,13.80
2022-09-27T17:28:33.744Z,14.40
2022-09-27T17:31:08.484Z,14.10
2022-09-27T17:33:43.289Z,14.30
2022-09-27T17:36:13.649Z,14.20
2022-09-27T17:38:42.274Z,13.97
2022-09-27T17:41:11.932Z,14.83
2022-09-27T17:43:46.413Z,14.47
2022-09-27T17:46:13.816Z,14.13
2022-09-27T17:48:58.667Z,13.80
2022-09-27T17:51:27.401Z,14.37
2022-09-27T17:53:54.745Z,14.30
2022-09-27T17:56:22.801Z,14.50
2022-09-27T17:58:51.586Z,14.30
2022-09-27T18:01:21.164Z,14.97
2022-09-27T18:03:48.675Z,13.97
2022-09-27T18:06:17.104Z,14.17
2022-09-27T18:08:45.809Z,14.17
2022-09-27T18:11:15.936Z,13.37
2022-09-27T18:13:44.258Z,13.53
2022-09-27T18:16:13.382Z,13.43
2022-09-27T18:18:42.333Z,13.93
2022-09-27T18:21:11.721Z,15.17
2022-09-27T18:23:39.869Z,15.07
2022-09-27T18:26:08.885Z,14.40
2022-09-27T18:28:37.501Z,15.57
2022-09-27T18:31:06.500Z,14.87
2022-09-27T18:33:34.462Z,16.13
2022-09-27T18:36:06.203Z,15.37
2022-09-27T18:38:34.351Z,15.00
2022-09-27T18:41:11.020Z,14.57
2022-09-27T18:43:39.074Z,14.40
2022-09-27T18:46:34.105Z,15.93
2022-09-27T18:48:56.592Z,16.07
2022-09-27T18:51:26.695Z,15.57
2022-09-27T18:53:55.781Z,15.53
2022-09-27T18:56:24.832Z,15.10
2022-09-27T18:58:52.473Z,15.40
2022-09-27T19:01:21.394Z,15.53
2022-09-27T19:03:49.277Z,15.03
2022-09-27T19:06:18.516Z,15.97
2022-09-27T19:08:46.065Z,16.57
2022-09-27T19:11:15.125Z,16.60
2022-09-27T19:13:51.142Z,16.10
2022-09-27T19:16:20.733Z,16.20
2022-09-27T19:18:48.454Z,15.43
2022-09-27T19:21:17.497Z,16.30
2022-09-27T19:23:45.872Z,16.50
2022-09-27T19:26:15.837Z,16.03
2022-09-27T19:28:45.589Z,15.30
2022-09-27T19:31:14.308Z,16.07
2022-09-27T19:33:42.029Z,16.97
2022-09-27T19:36:10.850Z,16.57
2022-09-27T19:38:39.046Z,16.80
2022-09-27T19:41:07.771Z,17.57
2022-09-27T19:43:35.301Z,18.00
2022-09-27T19:46:09.026Z,18.87
2022-09-27T19:48:37.226Z,18.17
2022-09-27T19:51:05.158Z,18.93
2022-09-27T19:53:33.086Z,18.90
2022-09-27T19:56:00.597Z,18.90
2022-09-27T19:58:28.902Z,19.30
2022-09-27T20:01:01.204Z,19.90
2022-09-27T20:03:30.502Z,20.33
2022-09-27T20:05:59.048Z,19.83
2022-09-27T20:08:26.782Z,21.90
2022-09-27T20:10:55.453Z,21.47
2022-09-27T20:13:23.813Z,21.93
2022-09-27T20:15:51.316Z,22.00
2022-09-27T20:18:18.721Z,22.67
2022-09-27T20:20:47.506Z,22.30
2022-09-27T20:23:19.773Z,22.47
2022-09-27T20:25:48.394Z,22.53
2022-09-27T20:28:15.741Z,22.10
2022-09-27T20:30:43.245Z,22.67
2022-09-27T20:33:28.249Z,22.27
2022-09-27T20:35:56.916Z,21.50
2022-09-27T20:38:24.258Z,20.87
2022-09-27T20:40:54.978Z,22.10
2022-09-27T20:43:22.481Z,21.47
2022-09-27T20:45:49.849Z,22.23
2022-09-27T20:48:17.955Z,21.50
2022-09-27T20:50:45.348Z,24.00
2022-09-27T20:53:14.036Z,24.60
2022-09-27T20:55:41.527Z,22.17
2022-09-27T20:58:08.878Z,21.43
2022-09-27T21:00:36.393Z,20.63
2022-09-27T21:03:04.013Z,21.00
2022-09-27T21:05:31.339Z,20.30
2022-09-27T21:07:58.701Z,22.60
2022-09-27T21:10:27.345Z,21.83
2022-09-27T21:12:54.734Z,20.90
2022-09-27T21:15:22.101Z,21.23
2022-09-27T21:17:50.173Z,23.13
2022-09-27T21:20:17.602Z,20.57
2022-09-27T21:22:44.981Z,21.33
2022-09-27T21:25:12.366Z,20.23
2022-09-27T21:27:41.041Z,20.90
2022-09-27T21:30:09.562Z,21.07
2022-09-27T21:32:38.089Z,20.60
2022-09-27T21:35:06.296Z,21.27
2022-09-27T21:37:34.039Z,22.87
2022-09-27T21:40:03.702Z,21.40
2022-09-27T21:42:31.098Z,22.20
2022-09-27T21:45:00.901Z,20.87
2022-09-27T21:47:28.269Z,20.90
2022-09-27T21:49:55.589Z,21.07
2022-09-27T21:52:22.939Z,20.57
2022-09-27T21:54:50.264Z,20.80
2022-09-27T21:57:17.622Z,20.63
2022-09-27T21:59:44.993Z,20.30
2022-09-27T22:02:13.779Z,20.90
2022-09-27T22:04:41.201Z,19.77
2022-09-27T22:07:08.529Z,19.37
2022-09-27T22:09:35.931Z,19.97
2022-09-27T22:12:03.300Z,19.30
2022-09-27T22:14:30.645Z,19.93
2022-09-27T22:16:57.981Z,22.93
2022-09-27T22:19:26.658Z,19.30
2022-09-27T22:21:54.050Z,20.40
2022-09-27T22:24:21.444Z,21.53
2022-09-27T22:26:50.204Z,22.77
2022-09-27T22:29:17.903Z,21.63
2022-09-27T22:31:45.511Z,20.67
2022-09-27T22:34:18.157Z,20.33
2022-09-27T22:36:46.893Z,19.90
2022-09-27T22:39:14.304Z,20.03
2022-09-27T22:41:41.749Z,20.40
2022-09-27T22:44:09.054Z,20.13
2022-09-27T22:46:36.550Z,20.67
2022-09-27T22:49:03.944Z,20.30
2022-09-27T22:51:31.280Z,19.43
2022-09-27T22:54:00.033Z,20.40
2022-09-27T22:56:27.556Z,20.67
2022-09-27T22:58:54.877Z,21.27
2022-09-27T23:01:23.647Z,20.93
2022-09-27T23:03:52.197Z,20.80
2022-09-27T23:06:21.586Z,20.60
2022-09-27T23:08:49.414Z,20.33
2022-09-27T23:11:19.805Z,20.13
2022-09-27T23:13:47.947Z,20.90
2022-09-27T23:16:16.896Z,20.07
2022-09-27T23:18:46.286Z,20.50
2022-09-27T23:21:15.049Z,20.27
2022-09-27T23:23:44.672Z,18.97
2022-09-27T23:26:13.521Z,20.87
2022-09-27T23:28:42.272Z,19.67
2022-09-27T23:31:13.483Z,19.70
2022-09-27T23:33:42.841Z,20.70
2022-09-27T23:36:11.537Z,19.83
2022-09-27T23:38:40.234Z,21.63
2022-09-27T23:41:08.502Z,22.67
2022-09-27T23:43:36.370Z,21.17
2022-09-27T23:46:06.759Z,20.53
2022-09-27T23:48:34.716Z,20.17
2022-09-27T23:51:02.554Z,20.27
2022-09-27T23:53:29.956Z,19.80
2022-09-27T23:56:02.449Z,20.67
2022-09-27T23:58:30.665Z,19.47
